Time;durP1;ratioP1;P1;durP2;ratioP2;P2;SDS_P1;SDS_P2;PMS_P1;PMS_P2;Temp;Humidity;BMP_temperature;BMP_pressure;BME280_temperature;BME280_humidity;BME280_pressure;Samples;Min_cycle;Max_cycle;Signal;HPM_P1;HPM_P2
2022/03/01 00:01:44;;;;;;;14.67;9.17;;;;;;;;;;5001055;28;20056;-68
2022/03/01 00:04:10;;;;;;;16.10;8.63;;;1.30;99.90;;;;;;5008266;28;20045;-68
2022/03/01 00:06:35;;;;;;;17.07;9.27;;;1.90;99.90;;;;;;5012050;28;20037;-68
2022/03/01 00:09:01;;;;;;;15.57;10.27;;;2.00;99.90;;;;;;5011898;28;20037;-68
2022/03/01 00:11:26;;;;;;;17.10;8.83;;;1.60;99.90;;;;;;4998151;28;20442;-68
2022/03/01 00:13:52;;;;;;;14.50;8.63;;;;;;;;;;4974826;28;20026;-68
2022/03/01 00:16:19;;;;;;;17.30;10.33;;;1.20;99.90;;;;;;4992430;28;20360;-68
2022/03/01 00:18:46;;;;;;;19.13;9.73;;;1.40;99.90;;;;;;4992217;28;20026;-68
2022/03/01 00:21:12;;;;;;;18.17;10.10;;;1.40;99.90;;;;;;4992301;28;20372;-68
2022/03/01 00:23:38;;;;;;;13.80;9.00;;;1.60;99.90;;;;;;4991572;28;20045;-68
2022/03/01 00:26:03;;;;;;;16.17;9.87;;;1.70;99.90;;;;;;4991845;28;20423;-68
2022/03/01 00:28:29;;;;;;;15.43;9.27;;;1.80;99.90;;;;;;4990965;28;20038;-68
2022/03/01 00:30:55;;;;;;;17.13;9.37;;;1.80;99.90;;;;;;4992301;28;20031;-68
2022/03/01 00:33:21;;;;;;;17.73;11.17;;;1.80;99.90;;;;;;4992080;28;20050;-68
2022/03/01 00:35:47;;;;;;;16.17;9.50;;;1.60;99.90;;;;;;4993952;28;20464;-68
2022/03/01 00:38:12;;;;;;;17.77;8.50;;;1.40;99.90;;;;;;5001612;28;20034;-68
2022/03/01 00:40:38;;;;;;;15.83;9.93;;;;;;;;;;4991770;28;20376;-68
2022/03/01 00:43:04;;;;;;;17.27;9.20;;;1.50;99.90;;;;;;5007810;28;20113;-68
2022/03/01 00:45:29;;;;;;;18.40;10.20;;;1.40;99.90;;;;;;5011043;28;20467;-68
2022/03/01 00:47:55;;;;;;;20.83;9.73;;;1.40;99.90;;;;;;5011775;28;20397;-68
2022/03/01 00:50:20;;;;;;;20.73;10.50;;;1.30;99.90;;;;;;5010985;28;20453;-68
2022/03/01 00:52:46;;;;;;;17.67;10.33;;;;;;;;;;5000685;28;20026;-68
2022/03/01 00:55:13;;;;;;;18.13;10.13;;;1.20;99.90;;;;;;4993470;28;20050;-68
2022/03/01 00:57:39;;;;;;;15.47;9.57;;;1.10;99.90;;;;;;5010958;28;20037;-68
2022/03/01 01:00:06;;;;;;;17.97;10.87;;;1.10;99.90;;;;;;5009261;28;20113;-68
2022/03/01 01:02:31;;;;;;;16.63;9.07;;;1.10;99.90;;;;;;4991056;28;20085;-68
2022/03/01 01:04:57;;;;;;;14.67;9.07;;;;;;;;;;4991492;28;20126;-68
2022/03/01 01:07:25;;;;;;;18.53;10.23;;;1.00;99.90;;;;;;4990931;28;20030;-68
2022/03/01 01:09:51;;;;;;;17.30;9.80;;;0.90;99.90;;;;;;4991557;28;20081;-68
2022/03/01 01:12:16;;;;;;;19.13;10.43;;;;;;;;;;4991138;28;20038;-68
2022/03/01 01:14:42;;;;;;;16.30;9.90;;;1.00;99.90;;;;;;4991304;28;20061;-68
2022/03/01 01:17:07;;;;;;;16.30;9.63;;;1.50;99.90;;;;;;5006382;28;20042;-68
2022/03/01 01:19:33;;;;;;;17.80;9.90;;;0.90;99.90;;;;;;5000426;28;20030;-68
2022/03/01 01:24:44;;;;;;;17.67;10.13;;;;;;;;;;4995977;28;20049;-68
2022/03/01 01:27:10;;;;;;;17.03;9.00;;;0.90;99.90;;;;;;5010880;28;20049;-68
2022/03/01 01:29:36;;;;;;;16.30;9.23;;;1.40;99.90;;;;;;5010443;28;20041;-68
2022/03/01 01:32:02;;;;;;;13.83;9.00;;;;;;;;;;4998703;28;20034;-68
2022/03/01 01:34:28;;;;;;;18.60;10.53;;;1.10;99.90;;;;;;4989292;28;20153;-68
2022/03/01 01:36:53;;;;;;;15.87;9.77;;;;;;;;;;4990501;28;20184;-67
2022/03/01 01:39:19;;;;;;;16.27;9.47;;;1.00;99.90;;;;;;4990530;28;20030;-68
2022/03/01 01:41:45;;;;;;;18.07;9.80;;;;;;;;;;4999706;28;20030;-68
2022/03/01 01:44:11;;;;;;;18.30;10.07;;;1.00;99.90;;;;;;5010203;28;20406;-68
2022/03/01 01:46:36;;;;;;;18.77;10.00;;;1.10;99.90;;;;;;4992650;28;20026;-68
2022/03/01 01:49:03;;;;;;;18.53;10.47;;;0.90;99.90;;;;;;5010541;28;20038;-68
2022/03/01 01:51:28;;;;;;;16.53;10.67;;;;;;;;;;5009653;28;20129;-68
2022/03/01 01:53:54;;;;;;;15.43;9.93;;;1.10;99.90;;;;;;5010416;28;20419;-68
2022/03/01 01:56:20;;;;;;;17.70;10.37;;;1.00;99.90;;;;;;5005167;28;20019;-68
2022/03/01 01:58:46;;;;;;;16.27;9.57;;;1.00;99.90;;;;;;4990364;28;20034;-68
2022/03/01 02:01:12;;;;;;;16.30;10.03;;;1.00;99.90;;;;;;4990308;28;20054;-68
2022/03/01 02:03:37;;;;;;;16.30;9.53;;;1.10;99.90;;;;;;4990241;28;20045;-68
2022/03/01 02:06:03;;;;;;;18.00;10.73;;;1.10;99.90;;;;;;4990740;28;20107;-68
2022/03/01 02:08:30;;;;;;;19.07;10.63;;;1.30;99.90;;;;;;4993658;28;20030;-68
2022/03/01 02:10:56;;;;;;;19.50;11.80;;;;;;;;;;5010994;28;20034;-68
2022/03/01 02:13:21;;;;;;;17.77;10.67;;;1.30;99.90;;;;;;5010494;28;20119;-68
2022/03/01 02:15:47;;;;;;;16.30;10.57;;;1.30;99.90;;;;;;5010565;28;20478;-68
2022/03/01 02:18:14;;;;;;;17.50;10.57;;;;;;;;;;5009553;28;20037;-68
2022/03/01 02:20:40;;;;;;;18.00;10.50;;;;;;;;;;5009615;28;20377;-68
2022/03/01 02:23:05;;;;;;;20.60;11.90;;;0.80;99.90;;;;;;5009417;28;20127;-68
2022/03/01 02:25:31;;;;;;;18.07;11.40;;;0.90;99.90;;;;;;4993361;28;20398;-68
2022/03/01 02:27:56;;;;;;;21.37;11.37;;;1.10;99.90;;;;;;4989927;28;20026;-68
2022/03/01 02:30:22;;;;;;;19.37;12.43;;;1.30;99.90;;;;;;4990067;28;20026;-68
2022/03/01 02:32:48;;;;;;;16.43;10.27;;;;;;;;;;4989643;28;20026;-68
2022/03/01 02:35:14;;;;;;;18.73;11.23;;;1.20;99.90;;;;;;4987922;28;20069;-68
2022/03/01 02:37:42;;;;;;;17.60;10.20;;;1.40;99.90;;;;;;4989571;28;20069;-68
2022/03/01 02:40:08;;;;;;;21.13;10.70;;;;;;;;;;5005816;28;20556;-68
2022/03/01 02:42:33;;;;;;;16.23;10.93;;;1.40;99.90;;;;;;5009310;28;20084;-68
2022/03/01 02:44:59;;;;;;;21.80;11.50;;;1.30;99.90;;;;;;5009368;28;20042;-68
2022/03/01 02:47:25;;;;;;;19.90;11.13;;;1.20;99.90;;;;;;5009272;28;20034;-68
2022/03/01 02:49:51;;;;;;;20.43;10.73;;;1.00;99.90;;;;;;4997116;28;20111;-68
2022/03/01 02:52:16;;;;;;;19.10;10.23;;;0.90;99.90;;;;;;4989545;28;20084;-68
2022/03/01 02:54:42;;;;;;;20.80;11.10;;;1.00;99.90;;;;;;4990846;28;20458;-68
2022/03/01 02:57:08;;;;;;;19.47;10.07;;;;;;;;;;4989415;28;20421;-68
2022/03/01 02:59:34;;;;;;;19.77;11.23;;;0.90;99.90;;;;;;4988099;28;20071;-68
2022/03/01 03:02:04;;;;;;;17.57;9.80;;;0.90;99.90;;;;;;4988812;28;20053;-68
2022/03/01 03:04:30;;;;;;;19.60;11.40;;;0.90;99.90;;;;;;4989624;28;20037;-68
2022/03/01 03:06:56;;;;;;;19.07;11.10;;;;;;;;;;4989338;28;20395;-68
2022/03/01 03:09:22;;;;;;;18.97;10.90;;;0.80;99.90;;;;;;4999785;28;20062;-68
2022/03/01 03:11:48;;;;;;;20.73;11.13;;;;;;;;;;5009715;28;20061;-68
2022/03/01 03:14:13;;;;;;;19.20;10.80;;;1.00;99.90;;;;;;5009281;28;20030;-68
2022/03/01 03:16:39;;;;;;;19.77;11.27;;;;;;;;;;5008673;28;20125;-68
2022/03/01 03:19:05;;;;;;;18.20;11.50;;;1.00;99.90;;;;;;5009005;28;20029;-68
2022/03/01 03:21:30;;;;;;;22.33;12.53;;;0.80;99.90;;;;;;5009113;28;20084;-68
2022/03/01 03:23:55;;;;;;;20.43;11.67;;;1.00;99.90;;;;;;4987672;28;20494;-68
2022/03/01 03:26:21;;;;;;;20.37;11.30;;;1.00;99.90;;;;;;4989609;28;20447;-68
2022/03/01 03:28:47;;;;;;;29.47;13.70;;;1.00;99.90;;;;;;4989318;28;20081;-68
2022/03/01 03:31:12;;;;;;;17.90;10.80;;;1.30;99.90;;;;;;4988940;28;20018;-68
2022/03/01 03:33:39;;;;;;;18.70;11.57;;;1.10;99.90;;;;;;4989461;28;20033;-67
2022/03/01 03:36:04;;;;;;;21.70;10.97;;;1.30;99.90;;;;;;4989206;28;20030;-68
2022/03/01 03:38:30;;;;;;;23.60;11.87;;;1.30;99.90;;;;;;4991739;28;20415;-68
2022/03/01 03:40:56;;;;;;;23.20;12.30;;;1.20;99.90;;;;;;5008566;28;20030;-68
2022/03/01 03:43:21;;;;;;;22.13;11.30;;;1.10;99.90;;;;;;5008998;28;20450;-68
2022/03/01 03:45:47;;;;;;;18.20;11.33;;;;;;;;;;5008294;28;20026;-68
2022/03/01 03:48:13;;;;;;;22.97;11.37;;;1.10;99.90;;;;;;5008656;28;20045;-68
2022/03/01 03:50:39;;;;;;;23.53;12.50;;;;;;;;;;4991513;28;20034;-68
2022/03/01 03:53:04;;;;;;;19.27;11.70;;;1.10;99.90;;;;;;4989020;28;20041;-68
2022/03/01 03:55:30;;;;;;;20.67;12.43;;;;;;;;;;4989378;28;20479;-68
2022/03/01 03:57:56;;;;;;;23.37;11.17;;;1.00;99.90;;;;;;4988797;28;20022;-68
2022/03/01 04:00:22;;;;;;;20.67;10.60;;;1.30;99.90;;;;;;5000346;28;20096;-68
2022/03/01 04:02:51;;;;;;;20.20;12.07;;;1.20;99.90;;;;;;5011900;28;20038;-68
2022/03/01 04:05:17;;;;;;;19.87;12.23;;;1.30;99.90;;;;;;5012447;28;20024;-68
2022/03/01 04:07:44;;;;;;;23.17;13.03;;;1.30;99.90;;;;;;5012181;28;20177;-68
2022/03/01 04:10:11;;;;;;;20.10;11.47;;;1.20;99.90;;;;;;5004525;28;20030;-68
2022/03/01 04:12:37;;;;;;;22.30;12.40;;;1.40;99.90;;;;;;4992593;28;20026;-68
2022/03/01 04:15:05;;;;;;;26.63;14.60;;;1.40;99.90;;;;;;4991738;28;20436;-68
2022/03/01 04:17:31;;;;;;;23.20;13.77;;;;;;;;;;4992705;28;20054;-68
2022/03/01 04:19:56;;;;;;;24.27;13.10;;;1.70;99.90;;;;;;4992933;28;20062;-68
2022/03/01 04:22:22;;;;;;;20.53;12.40;;;1.80;99.90;;;;;;4992549;28;20030;-68
2022/03/01 04:24:48;;;;;;;18.03;11.77;;;;;;;;;;4992121;28;20027;-68
2022/03/01 04:27:13;;;;;;;20.70;12.33;;;1.80;99.90;;;;;;4992432;28;20101;-68
2022/03/01 04:29:39;;;;;;;18.47;12.03;;;1.20;99.90;;;;;;4991735;28;20105;-68
2022/03/01 04:32:05;;;;;;;20.37;11.73;;;1.50;99.90;;;;;;4992006;28;20022;-68
2022/03/01 04:34:31;;;;;;;21.77;11.77;;;;;;;;;;4993306;28;20030;-68
2022/03/01 04:36:57;;;;;;;18.53;9.87;;;1.60;99.90;;;;;;5011335;28;20038;-68
2022/03/01 04:39:22;;;;;;;17.33;12.00;;;;;;;;;;4994072;28;20208;-68
2022/03/01 04:41:48;;;;;;;19.33;10.93;;;;;;;;;;4994618;28;20038;-68
2022/03/01 04:44:14;;;;;;;17.97;11.60;;;1.40;99.90;;;;;;4991565;28;20042;-68
2022/03/01 04:46:40;;;;;;;18.87;11.73;;;1.30;99.90;;;;;;4991906;28;20607;-68
2022/03/01 04:49:06;;;;;;;18.67;10.87;;;;;;;;;;4991574;28;20395;-68
2022/03/01 04:51:33;;;;;;;18.10;11.00;;;1.50;99.90;;;;;;4991769;28;20030;-68
2022/03/01 04:53:59;;;;;;;23.50;12.30;;;1.40;99.90;;;;;;4997083;28;20378;-68
2022/03/01 04:56:25;;;;;;;21.57;12.83;;;1.50;99.90;;;;;;5011428;28;20453;-68
2022/03/01 04:58:52;;;;;;;18.40;11.03;;;1.10;99.90;;;;;;5010344;28;20080;-68
2022/03/01 05:01:17;;;;;;;20.23;12.43;;;1.60;99.90;;;;;;5011292;28;20120;-68
2022/03/01 05:03:43;;;;;;;19.77;12.00;;;;;;;;;;5009658;28;20050;-68
2022/03/01 05:06:09;;;;;;;18.57;10.73;;;;;;;;;;4991297;28;20054;-68
2022/03/01 05:08:35;;;;;;;25.90;16.00;;;1.60;99.90;;;;;;4991685;28;20029;-68
2022/03/01 05:11:02;;;;;;;23.10;14.40;;;1.70;99.90;;;;;;4990897;28;20019;-68
2022/03/01 05:13:28;;;;;;;21.17;12.77;;;1.80;99.90;;;;;;4990363;28;20356;-68
2022/03/01 05:15:54;;;;;;;20.73;13.20;;;1.90;99.90;;;;;;5006498;28;20030;-68
2022/03/01 05:18:23;;;;;;;24.03;14.10;;;2.00;99.90;;;;;;5010981;28;20108;-68
2022/03/01 05:20:49;;;;;;;23.10;14.27;;;1.90;99.90;;;;;;5010459;28;20383;-68
2022/03/01 05:23:15;;;;;;;23.77;13.00;;;2.00;99.90;;;;;;5010799;28;20037;-68
2022/03/01 05:25:41;;;;;;;21.93;12.87;;;1.90;99.90;;;;;;5010706;28;20447;-68
2022/03/01 05:28:07;;;;;;;17.47;11.77;;;1.80;99.90;;;;;;5010122;28;20026;-68
2022/03/01 05:30:32;;;;;;;19.47;11.43;;;1.90;99.90;;;;;;5000725;28;20049;-68
2022/03/01 05:32:58;;;;;;;22.13;12.13;;;;;;;;;;4990607;28;20038;-68
2022/03/01 05:35:27;;;;;;;21.77;12.73;;;1.70;99.90;;;;;;4991184;28;20033;-68
2022/03/01 05:37:54;;;;;;;23.63;11.77;;;1.80;99.90;;;;;;4990462;28;20030;-68
2022/03/01 05:40:25;;;;;;;22.80;13.77;;;1.60;99.90;;;;;;4991060;28;20022;-68
2022/03/01 05:42:51;;;;;;;22.47;12.63;;;;;;;;;;4989970;28;20048;-68
2022/03/01 05:45:17;;;;;;;22.40;13.07;;;1.70;99.90;;;;;;4995099;28;20101;-67
2022/03/01 05:47:43;;;;;;;20.73;12.20;;;1.60;99.90;;;;;;5010287;28;20037;-68
2022/03/01 05:50:10;;;;;;;25.20;14.27;;;1.60;99.90;;;;;;5010030;28;20077;-68
2022/03/01 05:52:37;;;;;;;25.67;13.00;;;1.40;99.90;;;;;;5010404;28;20034;-68
2022/03/01 05:55:04;;;;;;;23.83;11.77;;;1.50;99.90;;;;;;5006952;28;20113;-68
2022/03/01 05:57:30;;;;;;;22.90;11.27;;;1.60;99.90;;;;;;4990702;28;20117;-68
2022/03/01 05:59:57;;;;;;;19.17;11.57;;;1.70;99.90;;;;;;4990045;28;20536;-68
2022/03/01 06:02:23;;;;;;;22.93;12.67;;;;;;;;;;4990435;28;20065;-68
2022/03/01 06:04:49;;;;;;;21.37;11.97;;;;;;;;;;4990244;28;20027;-68
2022/03/01 06:07:14;;;;;;;25.10;13.57;;;1.70;99.90;;;;;;4990701;28;20029;-68
2022/03/01 06:09:40;;;;;;;22.80;12.43;;;;;;;;;;4990316;28;20034;-68
2022/03/01 06:12:06;;;;;;;18.40;11.30;;;1.60;99.90;;;;;;5000192;28;20403;-68
2022/03/01 06:14:32;;;;;;;17.63;10.57;;;;;;;;;;5009719;28;20362;-68
2022/03/01 06:16:57;;;;;;;19.03;11.03;;;1.80;99.90;;;;;;5009214;28;20044;-68
2022/03/01 06:19:23;;;;;;;21.80;12.10;;;;;;;;;;5009914;28;20034;-68
2022/03/01 06:21:49;;;;;;;22.87;11.30;;;1.50;99.90;;;;;;5009391;28;20033;-68
2022/03/01 06:24:15;;;;;;;18.70;11.47;;;1.70;99.90;;;;;;4994043;28;20068;-68
2022/03/01 06:26:40;;;;;;;17.33;12.07;;;1.60;99.90;;;;;;4989190;28;20173;-68
2022/03/01 06:29:06;;;;;;;16.47;10.87;;;1.40;99.90;;;;;;4989819;28;20045;-68
2022/03/01 06:31:32;;;;;;;24.17;13.27;;;1.60;99.90;;;;;;4990062;28;20025;-67
2022/03/01 06:33:58;;;;;;;16.53;10.70;;;1.60;99.90;;;;;;4989607;28;20023;-68
2022/03/01 06:36:24;;;;;;;18.53;10.10;;;1.60;99.90;;;;;;4990143;28;20088;-68
2022/03/01 06:38:50;;;;;;;19.67;12.13;;;1.60;99.90;;;;;;4997603;28;20049;-68
2022/03/01 06:41:15;;;;;;;18.70;11.87;;;1.60;99.90;;;;;;5008991;28;20053;-68
2022/03/01 06:43:41;;;;;;;20.97;11.70;;;1.70;99.90;;;;;;5009123;28;20158;-68
2022/03/01 06:46:07;;;;;;;12.37;8.53;;;1.70;99.90;;;;;;5009278;28;20118;-68
2022/03/01 06:48:33;;;;;;;24.17;12.37;;;1.60;99.90;;;;;;5009560;28;20519;-68
2022/03/01 06:50:59;;;;;;;20.43;12.33;;;;;;;;;;5008936;28;20134;-68
2022/03/01 06:53:25;;;;;;;24.40;15.03;;;1.80;99.90;;;;;;5001341;28;20433;-68
2022/03/01 06:55:50;;;;;;;24.13;14.23;;;1.90;99.90;;;;;;4988819;28;20472;-68
2022/03/01 06:58:16;;;;;;;23.57;13.37;;;1.90;99.90;;;;;;4989681;28;20030;-68
2022/03/01 07:00:42;;;;;;;19.23;11.87;;;1.90;99.90;;;;;;4989271;28;20054;-68
2022/03/01 07:03:08;;;;;;;22.87;12.70;;;2.00;99.90;;;;;;4991920;28;20714;-69
2022/03/01 07:05:33;;;;;;;18.30;11.90;;;2.10;99.90;;;;;;5009450;28;20025;-69
2022/03/01 07:07:59;;;;;;;16.47;11.90;;;1.90;99.90;;;;;;5008606;28;20041;-69
2022/03/01 07:10:24;;;;;;;18.20;12.63;;;2.00;99.90;;;;;;5008829;28;20049;-69
2022/03/01 07:12:51;;;;;;;20.73;12.57;;;;;;;;;;5008556;28;20041;-69
2022/03/01 07:15:17;;;;;;;20.37;11.93;;;2.30;99.90;;;;;;4991685;28;20121;-69
2022/03/01 07:17:43;;;;;;;19.07;10.60;;;2.10;99.90;;;;;;4989387;28;20027;-69
2022/03/01 07:20:11;;;;;;;19.33;11.30;;;;;;;;;;4989244;28;20086;-69
2022/03/01 07:22:37;;;;;;;25.73;12.90;;;;;;;;;;4989535;28;20027;-69
2022/03/01 07:25:03;;;;;;;17.13;11.13;;;2.50;99.90;;;;;;4988667;28;20525;-69
2022/03/01 07:27:29;;;;;;;21.90;12.73;;;;;;;;;;4989400;28;20041;-69
2022/03/01 07:29:55;;;;;;;22.50;12.70;;;2.60;99.90;;;;;;4988933;28;20109;-69
2022/03/01 07:32:21;;;;;;;16.83;11.53;;;2.80;99.90;;;;;;4989371;28;20046;-69
2022/03/01 07:34:47;;;;;;;17.97;12.90;;;;;;;;;;4993136;28;20034;-69
2022/03/01 07:37:12;;;;;;;19.83;13.47;;;2.80;99.90;;;;;;5011411;28;20034;-69
2022/03/01 07:39:38;;;;;;;18.50;12.63;;;3.00;99.90;;;;;;5012348;28;20068;-69
2022/03/01 07:42:04;;;;;;;20.33;12.90;;;2.90;99.90;;;;;;5012252;28;20037;-69
2022/03/01 07:44:30;;;;;;;16.37;11.40;;;3.10;99.90;;;;;;5012672;28;20041;-69
2022/03/01 07:46:56;;;;;;;20.83;12.60;;;3.70;99.90;;;;;;5012058;28;20033;-69
2022/03/01 07:49:22;;;;;;;18.53;11.93;;;3.20;99.90;;;;;;5012674;28;20028;-69
2022/03/01 07:51:48;;;;;;;22.83;14.47;;;;;;;;;;4994933;28;20034;-69
2022/03/01 07:54:14;;;;;;;19.40;13.63;;;;;;;;;;4991049;28;20034;-69
2022/03/01 07:56:42;;;;;;;20.73;13.17;;;3.50;99.90;;;;;;4992928;28;20030;-69
2022/03/01 07:59:08;;;;;;;20.23;13.10;;;3.40;99.90;;;;;;5001735;28;20101;-69
2022/03/01 08:01:34;;;;;;;18.13;13.20;;;;;;;;;;5011336;28;20057;-69
2022/03/01 08:04:00;;;;;;;21.47;14.83;;;3.40;99.90;;;;;;5007459;28;20042;-69
2022/03/01 08:06:26;;;;;;;19.40;13.67;;;;;;;;;;5010463;28;20464;-69
2022/03/01 08:08:52;;;;;;;20.50;12.93;;;3.20;99.90;;;;;;5009865;28;20030;-69
2022/03/01 08:11:18;;;;;;;20.27;13.73;;;3.60;99.90;;;;;;5011211;28;21219;-69
2022/03/01 08:13:43;;;;;;;17.77;12.87;;;3.80;99.90;;;;;;5010107;28;20093;-69
2022/03/01 08:16:09;;;;;;;20.00;12.53;;;3.90;99.90;;;;;;5008123;28;20033;-69
2022/03/01 08:18:34;;;;;;;21.27;13.40;;;3.80;99.90;;;;;;5010610;28;20033;-69
2022/03/01 08:21:00;;;;;;;21.87;11.93;;;3.90;99.90;;;;;;4992424;28;20057;-69
2022/03/01 08:23:26;;;;;;;18.13;12.77;;;3.80;99.90;;;;;;5010759;28;20075;-68
2022/03/01 08:25:52;;;;;;;18.90;12.00;;;4.10;99.90;;;;;;5003751;28;20399;-69
2022/03/01 08:28:18;;;;;;;18.27;12.10;;;4.00;99.90;;;;;;5008664;28;20037;-69
2022/03/01 08:30:46;;;;;;;18.73;13.10;;;;;;;;;;4993076;28;20037;-68
2022/03/01 08:33:11;;;;;;;17.97;12.87;;;4.10;99.90;;;;;;5011023;28;20029;-68
2022/03/01 08:35:37;;;;;;;17.43;12.47;;;4.50;99.90;;;;;;5009863;28;20140;-69
2022/03/01 08:38:04;;;;;;;20.87;12.57;;;4.60;99.90;;;;;;5010518;28;20096;-68
2022/03/01 08:40:37;;;;;;;17.90;11.80;;;4.70;99.90;;;;;;5011415;28;20037;-68
2022/03/01 08:43:03;;;;;;;15.40;10.43;;;;;;;;;;4993017;28;20049;-70
2022/03/01 08:45:29;;;;;;;16.10;11.10;;;;;;;;;;5010987;28;20101;-69
2022/03/01 08:47:55;;;;;;;15.93;10.07;;;4.80;99.90;;;;;;5008270;28;20092;-69
2022/03/01 08:50:21;;;;;;;16.30;11.33;;;;;;;;;;5008876;28;20037;-69
2022/03/01 08:52:49;;;;;;;18.33;12.33;;;5.10;99.90;;;;;;5010580;28;20436;-69
2022/03/01 08:55:14;;;;;;;15.13;10.13;;;5.20;99.90;;;;;;5010494;28;20018;-69
2022/03/01 08:57:40;;;;;;;18.07;11.17;;;5.70;99.90;;;;;;5009456;28;20470;-69
2022/03/01 09:00:08;;;;;;;17.40;13.00;;;5.30;99.90;;;;;;5010017;28;20030;-69
2022/03/01 09:02:34;;;;;;;18.60;12.73;;;5.40;99.90;;;;;;5007371;28;20560;-69
2022/03/01 09:04:59;;;;;;;16.00;11.40;;;5.20;99.90;;;;;;5009638;28;20041;-69
2022/03/01 09:07:25;;;;;;;17.90;12.57;;;5.50;99.90;;;;;;5012766;28;20043;-69
2022/03/01 09:09:51;;;;;;;18.00;11.73;;;5.70;99.90;;;;;;5011020;28;20033;-69
2022/03/01 09:12:17;;;;;;;18.17;12.13;;;5.90;99.90;;;;;;5009875;28;20068;-69
2022/03/01 09:14:43;;;;;;;16.90;10.40;;;;;;;;;;5009180;28;20033;-69
2022/03/01 09:17:09;;;;;;;14.73;10.67;;;5.90;99.90;;;;;;4992525;28;20120;-69
2022/03/01 09:19:35;;;;;;;15.90;10.73;;;5.90;99.90;;;;;;5010200;28;20425;-68
2022/03/01 09:22:00;;;;;;;15.73;10.97;;;6.10;99.90;;;;;;5004399;28;20022;-69
2022/03/01 09:24:26;;;;;;;18.60;11.47;;;;;;;;;;5011775;28;20172;-69
2022/03/01 09:26:52;;;;;;;15.50;10.47;;;6.00;99.90;;;;;;5009150;28;20668;-68
2022/03/01 09:29:18;;;;;;;18.90;11.30;;;;;;;;;;5009840;28;20498;-69
2022/03/01 09:31:43;;;;;;;16.17;10.70;;;6.30;99.90;;;;;;5010109;28;20077;-68
2022/03/01 09:34:09;;;;;;;14.03;11.03;;;;;;;;;;5008904;28;20038;-68
2022/03/01 09:36:34;;;;;;;13.00;9.83;;;6.20;99.90;;;;;;5009901;28;20026;-68
2022/03/01 09:39:02;;;;;;;12.87;10.87;;;;;;;;;;5009298;28;20080;-68
2022/03/01 09:41:27;;;;;;;15.33;11.27;;;6.50;99.90;;;;;;5009355;28;20018;-68
2022/03/01 09:43:54;;;;;;;12.27;10.20;;;6.50;99.90;;;;;;4991036;28;20049;-68
2022/03/01 09:46:20;;;;;;;16.67;11.13;;;6.30;99.90;;;;;;4992394;28;20022;-69
2022/03/01 09:48:45;;;;;;;12.80;10.37;;;6.40;99.90;;;;;;5009694;28;20379;-69
2022/03/01 09:51:12;;;;;;;14.70;11.43;;;6.50;99.90;;;;;;5009602;28;20022;-68
2022/03/01 09:53:41;;;;;;;15.23;11.57;;;6.70;99.90;;;;;;5007290;28;20398;-68
2022/03/01 09:56:08;;;;;;;17.53;11.03;;;5.90;99.40;;;;;;4997663;28;20026;-68
2022/03/01 09:58:35;;;;;;;16.03;11.10;;;;;;;;;;4990457;28;20098;-69
2022/03/01 10:01:02;;;;;;;16.33;11.33;;;;;;;;;;5007832;28;20387;-68
2022/03/01 10:03:28;;;;;;;15.63;11.07;;;7.00;99.90;;;;;;5007863;28;20402;-69
2022/03/01 10:05:54;;;;;;;13.27;10.77;;;;;;;;;;5009363;28;20029;-68
2022/03/01 10:08:21;;;;;;;16.90;11.90;;;7.20;99.90;;;;;;4996279;28;20038;-68
2022/03/01 10:10:52;;;;;;;15.03;11.23;;;7.00;99.90;;;;;;5003324;28;20026;-68
2022/03/01 10:13:32;;;;;;;19.47;13.30;;;7.10;99.90;;;;;;4983537;28;20030;-68
2022/03/01 10:16:45;;;;;;;14.00;11.40;;;7.30;97.40;;;;;;5009131;28;20030;-68
2022/03/01 10:19:19;;;;;;;24.83;14.03;;;7.40;99.90;;;;;;4962528;28;20093;-69
2022/03/01 10:21:49;;;;;;;;;;;8.40;98.70;;;;;;4996279;28;20034;-68
2022/03/01 10:24:19;;;;;;;15.87;11.77;;;7.70;97.40;;;;;;5004222;28;20008;-69
2022/03/01 10:26:45;;;;;;;14.77;11.13;;;;;;;;;;5009285;28;20030;-67
2022/03/01 10:29:11;;;;;;;20.07;11.90;;;7.80;99.90;;;;;;5009341;28;20026;-68
2022/03/01 10:31:37;;;;;;;15.13;10.77;;;;;;;;;;5001744;28;20340;-68
2022/03/01 10:34:03;;;;;;;18.13;11.77;;;;;;;;;;4987903;28;20036;-68
2022/03/01 10:36:44;;;;;;;20.73;12.57;;;8.10;96.40;;;;;;5005605;28;20439;-69
2022/03/01 10:39:13;;;;;;;15.43;11.13;;;8.10;99.90;;;;;;5009147;28;20018;-71
2022/03/01 10:41:44;;;;;;;15.20;11.43;;;8.20;96.10;;;;;;5004838;28;20034;-70
2022/03/01 10:44:15;;;;;;;17.50;10.93;;;8.40;99.90;;;;;;4989386;28;20038;-70
2022/03/01 10:46:42;;;;;;;14.07;11.63;;;8.10;99.90;;;;;;5000659;28;20022;-68
2022/03/01 10:49:15;;;;;;;16.77;11.30;;;8.30;99.90;;;;;;4990891;28;20068;-68
2022/03/01 10:51:51;;;;;;;18.50;11.57;;;8.30;99.90;;;;;;5006840;28;20022;-68
2022/03/01 10:54:28;;;;;;;15.73;11.80;;;8.30;99.90;;;;;;4989762;28;20053;-68
2022/03/01 10:56:55;;;;;;;14.83;9.90;;;8.30;99.90;;;;;;4995183;28;20065;-68
2022/03/01 10:59:21;;;;;;;19.67;14.20;;;;;;;;;;4989783;28;20109;-68
2022/03/01 11:01:47;;;;;;;15.20;11.77;;;;;;;;;;4996525;28;20133;-68
2022/03/01 11:04:12;;;;;;;13.63;11.33;;;8.90;99.90;;;;;;5008519;28;20495;-68
2022/03/01 11:06:39;;;;;;;20.53;13.27;;;9.00;99.90;;;;;;5002712;28;20368;-68
2022/03/01 11:09:07;;;;;;;15.10;11.73;;;9.00;99.90;;;;;;5015710;28;20032;-68
2022/03/01 11:11:33;;;;;;;17.50;11.60;;;9.00;99.90;;;;;;5032012;28;20040;-69
2022/03/01 11:13:59;;;;;;;16.37;11.67;;;;;;;;;;5015103;28;20034;-68
2022/03/01 11:17:03;;;;;;;18.80;11.83;;;8.90;99.90;;;;;;5014803;28;20022;-68
2022/03/01 11:20:01;;;;;;;18.17;12.38;;;9.10;93.20;;;;;;5012242;28;20112;-68
2022/03/01 11:22:40;;;;;;;13.37;11.10;;;9.10;97.50;;;;;;5013591;28;20504;-68
2022/03/01 11:25:07;;;;;;;12.57;9.70;;;;;;;;;;5016810;28;20141;-68
2022/03/01 11:27:43;;;;;;;15.37;11.07;;;9.40;99.90;;;;;;5015145;28;20386;-68
2022/03/01 11:30:10;;;;;;;15.13;11.40;;;9.40;99.90;;;;;;5014748;28;20095;-68
2022/03/01 11:32:44;;;;;;;11.67;8.87;;;9.50;99.90;;;;;;5007619;28;20033;-68
2022/03/01 11:35:22;;;;;;;16.40;10.40;;;9.80;92.90;;;;;;5007658;28;20471;-69
2022/03/01 11:37:58;;;;;;;14.90;10.70;;;9.40;93.30;;;;;;4996032;28;20117;-69
2022/03/01 11:40:25;;;;;;;14.33;10.63;;;9.70;93.30;;;;;;4994719;28;20038;-68
2022/03/01 11:42:51;;;;;;;18.73;11.13;;;;;;;;;;5008210;28;20042;-68
2022/03/01 11:45:17;;;;;;;15.47;11.83;;;;;;;;;;5014529;28;20034;-68
2022/03/01 11:47:43;;;;;;;13.90;9.60;;;9.80;95.80;;;;;;5010964;28;20036;-69
2022/03/01 11:50:15;;;;;;;15.60;11.33;;;9.80;99.10;;;;;;5014007;28;20032;-68
2022/03/01 11:52:55;;;;;;;17.83;11.20;;;9.90;91.20;;;;;;5014080;28;20018;-68
2022/03/01 11:55:22;;;;;;;15.20;10.93;;;9.90;99.00;;;;;;5015390;28;20541;-68
2022/03/01 11:57:49;;;;;;;14.23;10.63;;;9.90;91.70;;;;;;5014550;28;20037;-68
2022/03/01 12:00:16;;;;;;;15.03;11.57;;;10.00;96.30;;;;;;5014435;28;20026;-68
2022/03/01 12:02:48;;;;;;;15.50;11.90;;;10.10;98.60;;;;;;5014610;28;20053;-68
2022/03/01 12:05:25;;;;;;;15.73;11.70;;;10.20;98.60;;;;;;5015089;28;20029;-68
2022/03/01 12:07:52;;;;;;;14.50;10.37;;;10.10;98.50;;;;;;5014335;28;20105;-67
2022/03/01 12:10:25;;;;;;;14.40;11.10;;;10.40;98.60;;;;;;5014992;28;20465;-68
2022/03/01 12:12:55;;;;;;;15.40;11.75;;;10.10;98.50;;;;;;5006594;28;20026;-69
2022/03/01 12:15:32;;;;;;;14.30;10.30;;;10.40;98.40;;;;;;4985219;28;20034;-68
2022/03/01 12:18:13;;;;;;;11.50;8.83;;;10.30;98.40;;;;;;5002485;28;20018;-68
2022/03/01 12:20:44;;;;;;;13.13;10.03;;;10.40;91.60;;;;;;4998542;28;20475;-68
2022/03/01 12:23:10;;;;;;;17.47;10.87;;;;;;;;;;5005492;28;20049;-68
2022/03/01 12:25:38;;;;;;;15.03;11.13;;;10.60;97.80;;;;;;5011949;28;20022;-68
2022/03/01 12:28:07;;;;;;;15.37;11.57;;;10.40;97.60;;;;;;5029794;28;20063;-68
2022/03/01 12:30:43;;;;;;;15.33;11.57;;;10.50;97.60;;;;;;5031588;28;20452;-68
2022/03/01 12:33:16;;;;;;;13.77;9.37;;;12.00;90.00;;;;;;5031469;28;20497;-68
2022/03/01 12:35:43;;;;;;;15.97;11.10;;;10.80;97.20;;;;;;5012402;28;20057;-68
2022/03/01 12:38:12;;;;;;;14.33;12.20;;;10.90;96.10;;;;;;5011525;28;20720;-68
2022/03/01 12:40:40;;;;;;;18.93;10.70;;;11.10;97.20;;;;;;5005703;28;20030;-68
2022/03/01 12:43:09;;;;;;;15.37;9.77;;;11.10;96.80;;;;;;5002807;28;20040;-68
2022/03/01 12:45:43;;;;;;;12.83;10.87;;;11.30;96.40;;;;;;4999954;28;20041;-68
2022/03/01 12:48:11;;;;;;;17.23;10.93;;;11.00;96.50;;;;;;5002176;28;20036;-68
2022/03/01 12:50:43;;;;;;;16.30;10.40;;;11.30;96.50;;;;;;5007769;28;20088;-66
2022/03/01 12:53:11;;;;;;;16.60;11.30;;;11.10;96.30;;;;;;5010072;28;20033;-66
2022/03/01 12:55:39;;;;;;;15.77;11.67;;;11.40;96.10;;;;;;5000236;28;20125;-66
2022/03/01 12:58:22;;;;;;;20.40;12.20;;;11.50;96.20;;;;;;5010618;28;20092;-66
2022/03/01 13:00:48;;;;;;;13.03;11.07;;;11.40;96.20;;;;;;5010864;28;20077;-67